Kimberlin Heights, Tennessee
Current Conditions -  °F | °C
As of 8:53 AM on Monday 24 Nov 2014 (Local Time) from KTYS Reporting Station
Scattered Clouds Scattered Clouds  
Wind Chill: 17°   Ceiling: Unl
Heat Index: 17°   Visibility: 10mi
Dew Point: 11°   Wind: 17mph
Humidity: 67%   Direction: 210°SSW
Pressure: 29.67"   Gusts: NA
Location:  35.9105°N, 83.8544°W
Report Text: KTYS 241353Z 21015KT 10SM SCT035 17/11 A2967 RMK AO2 PK WND 20026/1322 SLP039 T01720111
Loading
Personal Weather Stations






























Interactive Weather Map New forecast layout! Learn more

10-Day Weather Forecast

Advertisements
Track Severe Weather on mobile